Time;durP1;ratioP1;P1;durP2;ratioP2;P2;SDS_P1;SDS_P2;PMS_P1;PMS_P2;Temp;Humidity;BMP_temperature;BMP_pressure;BME280_temperature;BME280_humidity;BME280_pressure;Samples;Min_cycle;Max_cycle;Signal;HPM_P1;HPM_P2
2023/05/26 00:01:57;;;;;;;15.80;12.20;;;;;;;14.17;100.00;99840.47;5064522;28;20259;-80
2023/05/26 00:04:25;;;;;;;13.43;12.03;;;;;;;14.18;100.00;99836.72;5073067;28;20195;-80
2023/05/26 00:06:54;;;;;;;12.70;11.40;;;;;;;14.08;100.00;99833.81;5082517;28;20759;-80
2023/05/26 00:09:21;;;;;;;13.63;12.23;;;;;;;14.08;100.00;99840.00;5074861;28;20266;-81
2023/05/26 00:11:50;;;;;;;14.03;12.33;;;;;;;14.16;100.00;99843.38;5079352;28;20197;-80
2023/05/26 00:14:22;;;;;;;13.60;12.20;;;;;;;14.23;100.00;99836.00;5054831;28;20295;-81
2023/05/26 00:16:49;;;;;;;13.73;11.97;;;;;;;14.09;100.00;99833.53;5043026;28;20212;-81
2023/05/26 00:19:18;;;;;;;14.00;12.60;;;;;;;14.06;100.00;99836.72;5061004;28;20286;-80
2023/05/26 00:21:51;;;;;;;14.13;12.60;;;;;;;14.15;100.00;99839.03;5043580;28;20191;-80
2023/05/26 00:24:20;;;;;;;13.47;12.17;;;;;;;14.03;100.00;99837.22;5077505;28;20195;-80
2023/05/26 00:26:49;;;;;;;14.53;12.23;;;;;;;13.95;100.00;99834.84;5078535;28;20267;-80
2023/05/26 00:29:16;;;;;;;12.60;11.30;;;;;;;14.07;100.00;99842.94;5066218;28;20199;-80
2023/05/26 00:31:55;;;;;;;13.37;11.97;;;;;;;13.94;100.00;99835.94;5068075;28;20196;-79
2023/05/26 00:34:22;;;;;;;14.37;11.63;;;;;;;13.89;100.00;99832.31;5058468;28;20668;-79
2023/05/26 00:36:50;;;;;;;12.87;11.67;;;;;;;13.80;100.00;99834.53;5059724;28;20222;-80
2023/05/26 00:39:19;;;;;;;12.77;11.47;;;;;;;13.73;100.00;99835.69;5045606;28;20245;-79
2023/05/26 00:41:47;;;;;;;12.57;11.27;;;;;;;13.75;100.00;99834.44;5057692;28;20222;-79
2023/05/26 00:44:14;;;;;;;12.30;11.00;;;;;;;13.72;100.00;99842.16;5071426;28;20193;-79
2023/05/26 00:46:44;;;;;;;12.50;11.20;;;;;;;13.69;100.00;99848.81;5072435;28;20219;-80
2023/05/26 00:49:11;;;;;;;11.27;10.17;;;;;;;13.67;100.00;99840.13;5058229;28;20189;-80
2023/05/26 00:51:38;;;;;;;13.00;10.67;;;;;;;13.60;100.00;99837.59;5071654;28;20285;-79
2023/05/26 00:54:05;;;;;;;12.80;10.53;;;;;;;13.64;100.00;99848.69;5055468;28;20230;-78
2023/05/26 00:56:34;;;;;;;12.00;10.80;;;;;;;13.71;100.00;99837.81;5066688;28;20196;-79
2023/05/26 00:59:03;;;;;;;12.43;11.03;;;;;;;13.70;100.00;99841.56;5067912;28;20600;-79
2023/05/26 01:01:32;;;;;;;11.43;10.23;;;;;;;13.94;100.00;99841.31;5056041;28;20237;-80
2023/05/26 01:03:59;;;;;;;11.10;9.73;;;;;;;13.96;100.00;99843.75;5061420;28;20688;-79
2023/05/26 01:06:26;;;;;;;11.37;10.27;;;;;;;13.94;100.00;99840.50;5074289;28;20262;-79
2023/05/26 01:08:53;;;;;;;10.97;9.87;;;;;;;13.80;100.00;99842.63;5079019;28;20185;-79
2023/05/26 01:11:35;;;;;;;11.43;10.33;;;;;;;13.84;100.00;99845.66;5062451;28;20189;-78
2023/05/26 01:14:15;;;;;;;11.37;10.00;;;;;;;13.77;100.00;99834.16;5060803;28;20199;-79
2023/05/26 01:16:51;;;;;;;12.30;11.00;;;;;;;13.74;100.00;99837.34;5067281;28;20191;-80
2023/05/26 01:19:46;;;;;;;13.20;10.00;;;;;;;13.73;100.00;99838.38;5053022;28;20201;-81
2023/05/26 01:22:38;;;;;;;12.60;11.30;;;;;;;13.70;100.00;99837.00;5068910;28;20208;-80
2023/05/26 01:25:31;;;;;;;12.10;10.90;;;;;;;13.63;100.00;99849.75;5069564;28;20270;-80
2023/05/26 01:28:21;;;;;;;12.40;11.20;;;;;;;13.69;100.00;99846.13;5063405;28;20197;-81
2023/05/26 01:31:16;;;;;;;12.27;11.07;;;;;;;13.64;100.00;99851.38;5069820;28;20198;-81
2023/05/26 01:33:47;;;;;;;12.63;11.43;;;;;;;13.75;100.00;99847.88;5043135;28;20664;-82
2023/05/26 01:36:35;;;;;;;12.17;11.00;;;;;;;13.62;100.00;99846.22;5072237;28;20202;-82
2023/05/26 01:39:22;;;;;;;12.03;10.83;;;;;;;13.58;100.00;99852.31;5084165;28;20222;-81
2023/05/26 01:42:04;;;;;;;13.50;10.73;;;;;;;13.60;100.00;99844.84;5059297;28;20730;-79
2023/05/26 01:44:46;;;;;;;11.77;10.57;;;;;;;13.60;100.00;99840.28;5058779;28;20190;-80
2023/05/26 01:47:14;;;;;;;13.57;11.23;;;;;;;13.46;100.00;99846.13;5045373;28;20242;-81
2023/05/26 01:49:45;;;;;;;11.70;10.50;;;;;;;13.54;100.00;99845.75;5041770;28;20199;-80
2023/05/26 01:52:13;;;;;;;12.07;10.83;;;;;;;13.43;100.00;99844.72;5044040;28;20220;-80
2023/05/26 01:55:02;;;;;;;12.23;11.10;;;;;;;13.40;100.00;99841.66;5043783;28;20255;-80
2023/05/26 01:57:32;;;;;;;12.30;11.00;;;;;;;13.30;100.00;99844.13;5061841;28;20225;-80
2023/05/26 02:00:00;;;;;;;12.20;10.83;;;;;;;13.37;100.00;99847.50;5061857;28;20203;-81
2023/05/26 02:02:42;;;;;;;12.10;10.90;;;;;;;13.30;100.00;99847.59;5059679;28;20246;-81
2023/05/26 02:05:10;;;;;;;11.97;10.77;;;;;;;13.35;100.00;99842.34;5029804;28;20233;-81
2023/05/26 02:07:40;;;;;;;12.20;10.87;;;;;;;13.30;100.00;99844.91;5066905;28;20211;-80
2023/05/26 02:10:08;;;;;;;12.63;11.33;;;;;;;13.33;100.00;99846.34;5070823;28;20203;-80
2023/05/26 02:12:36;;;;;;;12.60;11.30;;;;;;;13.44;100.00;99845.53;5077593;28;20204;-80
2023/05/26 02:15:05;;;;;;;14.17;11.50;;;;;;;13.20;100.00;99834.72;5055194;28;20288;-81
2023/05/26 02:17:37;;;;;;;13.43;12.03;;;;;;;13.21;100.00;99840.94;5066236;28;20202;-81
2023/05/26 02:20:06;;;;;;;13.77;12.37;;;;;;;13.25;100.00;99842.09;5057458;28;20180;-79
2023/05/26 02:22:35;;;;;;;14.77;12.30;;;;;;;13.16;100.00;99840.81;5057060;28;20630;-80
2023/05/26 02:25:02;;;;;;;14.60;13.10;;;;;;;13.08;100.00;99841.09;5074184;28;20247;-79
2023/05/26 02:27:29;;;;;;;14.37;12.97;;;;;;;13.10;100.00;99844.41;5061379;28;20223;-80
2023/05/26 02:29:58;;;;;;;14.63;12.97;;;;;;;13.01;100.00;99843.91;5060103;28;20187;-80
2023/05/26 02:32:25;;;;;;;15.00;13.20;;;;;;;12.93;100.00;99838.03;5059564;28;20568;-80
2023/05/26 02:34:52;;;;;;;13.67;12.30;;;;;;;12.97;100.00;99844.59;5073097;28;20213;-80
2023/05/26 02:37:19;;;;;;;14.23;12.87;;;;;;;12.98;100.00;99838.97;5060677;28;20219;-81
2023/05/26 02:39:46;;;;;;;14.63;12.30;;;;;;;13.01;100.00;99832.34;5060449;28;20220;-80
2023/05/26 02:42:13;;;;;;;14.43;13.03;;;;;;;12.93;100.00;99838.03;5065779;28;20198;-80
2023/05/26 02:44:40;;;;;;;15.70;14.10;;;;;;;12.87;100.00;99847.84;5074393;28;20191;-81
2023/05/26 02:47:06;;;;;;;15.37;13.77;;;;;;;12.84;100.00;99842.91;5059453;28;20223;-80
2023/05/26 02:49:34;;;;;;;14.40;12.90;;;;;;;12.80;100.00;99839.88;5066718;28;20606;-80
2023/05/26 02:52:10;;;;;;;15.20;13.60;;;;;;;12.72;100.00;99842.06;5063303;28;20656;-80
2023/05/26 02:54:37;;;;;;;14.93;13.40;;;;;;;12.64;100.00;99842.38;5077789;28;20199;-80
2023/05/26 02:57:03;;;;;;;14.83;13.43;;;;;;;12.70;100.00;99838.78;5057575;28;20669;-80
2023/05/26 02:59:30;;;;;;;15.77;14.03;;;;;;;12.81;100.00;99832.63;5048867;28;20292;-81
2023/05/26 03:01:57;;;;;;;14.87;13.37;;;;;;;12.72;100.00;99842.88;5075918;28;20237;-80
2023/05/26 03:04:24;;;;;;;15.13;13.67;;;;;;;12.78;100.00;99835.78;5067372;28;20201;-80
2023/05/26 03:06:51;;;;;;;15.30;13.73;;;;;;;12.82;100.00;99838.81;5060634;28;20249;-79
2023/05/26 03:09:22;;;;;;;15.23;13.77;;;;;;;12.85;100.00;99841.88;5071017;28;20218;-79
2023/05/26 03:11:50;;;;;;;15.30;13.73;;;;;;;12.87;100.00;99845.16;5061519;28;20201;-80
2023/05/26 03:14:18;;;;;;;14.97;13.50;;;;;;;12.84;100.00;99836.72;5041151;28;20732;-80
2023/05/26 03:16:45;;;;;;;14.43;13.03;;;;;;;12.86;100.00;99848.06;5063770;28;20579;-80
2023/05/26 03:19:12;;;;;;;16.17;14.57;;;;;;;13.02;100.00;99847.41;5061046;28;20747;-80
2023/05/26 03:21:39;;;;;;;15.97;13.83;;;;;;;13.09;100.00;99840.06;5060063;28;20186;-79
2023/05/26 03:24:15;;;;;;;16.60;13.97;;;;;;;12.96;100.00;99834.91;5062216;28;20227;-80
2023/05/26 03:26:42;;;;;;;15.90;14.03;;;;;;;13.03;100.00;99841.81;5056523;28;20307;-80
2023/05/26 03:29:09;;;;;;;15.70;14.00;;;;;;;13.10;100.00;99834.47;5064096;28;20218;-80
2023/05/26 03:31:36;;;;;;;15.93;14.33;;;;;;;13.07;100.00;99834.91;5041111;28;20196;-80
2023/05/26 03:34:03;;;;;;;15.70;14.20;;;;;;;13.08;100.00;99833.88;5049668;28;20297;-80
2023/05/26 03:36:32;;;;;;;14.90;13.33;;;;;;;13.16;100.00;99830.03;5065105;28;20195;-80
2023/05/26 03:39:12;;;;;;;15.63;14.03;;;;;;;13.12;100.00;99834.25;5057546;28;20218;-80
2023/05/26 03:41:39;;;;;;;15.83;14.23;;;;;;;13.26;100.00;99835.66;5047262;28;20204;-80
2023/05/26 03:44:06;;;;;;;15.80;14.07;;;;;;;13.29;100.00;99843.31;5062388;28;20191;-80
2023/05/26 03:46:35;;;;;;;17.63;13.97;;;;;;;13.34;100.00;99839.91;5046149;28;20695;-80
2023/05/26 03:49:03;;;;;;;15.67;14.10;;;;;;;13.39;100.00;99835.44;5076061;28;20211;-80
2023/05/26 03:51:33;;;;;;;14.77;13.33;;;;;;;13.48;100.00;99835.94;5070641;28;20191;-80
2023/05/26 03:54:01;;;;;;;15.23;13.80;;;;;;;13.53;100.00;99831.47;5073711;28;20290;-80
2023/05/26 03:56:28;;;;;;;15.70;14.10;;;;;;;13.67;100.00;99838.28;5075665;28;20221;-81
2023/05/26 03:58:55;;;;;;;15.17;13.67;;;;;;;14.09;100.00;99836.25;5060293;28;20204;-80
2023/05/26 04:01:22;;;;;;;16.13;13.37;;;;;;;14.95;100.00;99842.53;5067297;28;20201;-80
2023/05/26 04:03:50;;;;;;;14.87;13.27;;;;;;;15.86;100.00;99846.75;5073061;28;20260;-80
2023/05/26 04:06:18;;;;;;;14.27;12.87;;;;;;;16.51;100.00;99837.84;5054189;28;20201;-78
2023/05/26 04:08:47;;;;;;;13.37;12.00;;;;;;;17.26;100.00;99847.84;5055944;28;20197;-79
2023/05/26 04:11:15;;;;;;;12.57;11.27;;;;;;;18.01;100.00;99851.09;5053700;28;20247;-78
2023/05/26 04:13:44;;;;;;;12.83;11.53;;;;;;;17.77;100.00;99852.59;5057239;28;20182;-79
2023/05/26 04:16:11;;;;;;;12.43;11.13;;;;;;;18.61;100.00;99857.91;5061598;28;20539;-78
2023/05/26 04:18:40;;;;;;;13.40;11.70;;;;;;;19.06;100.00;99862.63;5067423;28;20182;-79
2023/05/26 04:21:08;;;;;;;12.77;11.57;;;;;;;19.61;100.00;99852.88;5055375;28;20177;-78
2023/05/26 04:23:34;;;;;;;11.83;10.60;;;;;;;19.71;100.00;99850.16;5059329;28;20564;-79
2023/05/26 04:26:03;;;;;;;12.63;11.00;;;;;;;19.87;100.00;99857.22;5072451;28;20190;-78
2023/05/26 04:28:53;;;;;;;12.30;10.97;;;;;;;19.23;100.00;99852.31;5073216;28;20205;-79
2023/05/26 04:31:31;;;;;;;11.87;10.77;;;;;;;18.51;100.00;99843.47;5063635;28;20193;-78
2023/05/26 04:34:24;;;;;;;12.17;10.93;;;;;;;17.87;100.00;99844.50;5075810;28;20205;-78
2023/05/26 04:37:20;;;;;;;12.10;10.60;;;;;;;17.52;100.00;99844.25;5078087;28;20607;-78
2023/05/26 04:39:47;;;;;;;12.70;11.03;;;;;;;17.29;100.00;99842.72;5077880;28;20188;-79
2023/05/26 04:42:13;;;;;;;12.73;11.60;;;;;;;17.22;100.00;99842.09;5076670;28;20212;-78
2023/05/26 04:44:43;;;;;;;12.40;11.10;;;;;;;17.06;100.00;99838.44;5078330;28;20267;-78
2023/05/26 04:47:10;;;;;;;12.37;11.27;;;;;;;17.13;100.00;99832.81;5080591;28;20220;-80
2023/05/26 04:49:40;;;;;;;12.73;11.43;;;;;;;17.06;100.00;99826.81;5082290;28;20193;-80
2023/05/26 04:52:08;;;;;;;13.53;12.13;;;;;;;17.16;100.00;99829.59;5066240;28;20212;-80
2023/05/26 04:54:40;;;;;;;12.83;11.63;;;;;;;17.20;100.00;99833.44;5083232;28;20192;-80
2023/05/26 04:57:09;;;;;;;15.37;12.50;;;;;;;17.18;100.00;99835.56;5083482;28;20193;-80
2023/05/26 04:59:46;;;;;;;13.30;12.00;;;;;;;17.02;100.00;99831.91;5053214;28;20211;-80
2023/05/26 05:02:16;;;;;;;14.00;12.60;;;;;;;17.28;100.00;99838.34;5083980;28;20228;-80
2023/05/26 05:05:04;;;;;;;12.47;11.17;;;;;;;17.34;100.00;99836.50;5086262;28;20177;-81
2023/05/26 05:08:13;;;;;;;12.57;11.27;;;;;;;17.44;100.00;99829.28;5096517;28;20248;-81
2023/05/26 05:20:23;;;;;;;11.07;9.93;;;;;;;17.91;100.00;99839.41;5096736;28;20260;-81
2023/05/26 05:23:41;;;;;;;13.30;10.23;;;;;;;17.91;100.00;99847.53;5094518;28;20196;-82
2023/05/26 05:31:03;;;;;;;10.40;9.37;;;;;;;18.15;100.00;99842.50;5095778;28;20238;-82
2023/05/26 05:37:23;;;;;;;10.27;9.33;;;;;;;18.37;100.00;99832.28;5093341;28;20212;-81
2023/05/26 05:40:28;;;;;;;10.13;9.03;;;;;;;18.23;100.00;99842.81;5080344;28;20256;-83
2023/05/26 05:43:48;;;;;;;10.17;8.73;;;;;;;18.54;100.00;99842.94;5084582;28;20197;-82
2023/05/26 06:00:12;;;;;;;9.33;8.30;;;;;;;18.82;100.00;99846.03;5012199;28;20195;-81
2023/05/26 06:03:15;;;;;;;9.73;7.77;;;;;;;18.88;100.00;99844.13;4995818;28;20215;-82
2023/05/26 06:10:12;;;;;;;9.57;7.87;;;;;;;19.23;100.00;99846.06;5070619;28;20189;-81
2023/05/26 06:13:13;;;;;;;10.73;7.80;;;;;;;19.12;100.00;99855.31;5056876;28;20797;-81
2023/05/26 06:16:15;;;;;;;8.53;7.50;;;;;;;19.13;100.00;99849.59;5070246;28;20200;-81
2023/05/26 06:18:53;;;;;;;10.80;7.80;;;;;;;19.21;100.00;99851.78;5069389;28;20299;-82
2023/05/26 06:21:59;;;;;;;8.87;7.50;;;;;;;19.21;100.00;99861.84;5058806;28;20198;-81
2023/05/26 06:24:32;;;;;;;9.27;7.90;;;;;;;19.30;100.00;99862.94;5069537;28;20190;-81
2023/05/26 06:31:16;;;;;;;9.10;8.10;;;;;;;19.34;100.00;99862.13;5088115;28;20268;-81
2023/05/26 06:34:04;;;;;;;9.00;7.40;;;;;;;19.36;100.00;99853.69;5071528;28;20268;-81
2023/05/26 06:36:35;;;;;;;8.30;7.50;;;;;;;19.51;100.00;99864.56;5069566;28;20193;-81
2023/05/26 06:39:06;;;;;;;9.00;7.20;;;;;;;19.79;100.00;99863.19;5064116;28;20193;-80
2023/05/26 06:41:33;;;;;;;9.53;7.23;;;;;;;19.79;100.00;99857.75;5042775;28;20201;-81
2023/05/26 06:44:02;;;;;;;8.50;7.63;;;;;;;19.33;100.00;99856.94;5062109;28;20185;-81
2023/05/26 06:46:31;;;;;;;8.20;7.13;;;;;;;19.81;100.00;99861.03;5084429;28;20209;-80
2023/05/26 06:48:59;;;;;;;10.73;8.10;;;;;;;19.89;100.00;99856.91;5066994;28;20190;-81
2023/05/26 06:51:46;;;;;;;9.17;7.10;;;;;;;20.03;100.00;99863.41;5069203;28;20260;-80
2023/05/26 06:54:14;;;;;;;10.10;7.43;;;;;;;19.82;100.00;99856.41;5069903;28;20288;-81
2023/05/26 06:56:41;;;;;;;10.00;6.90;;;;;;;19.56;100.00;99859.13;5066959;28;20224;-79
2023/05/26 06:59:08;;;;;;;9.37;7.37;;;;;;;19.51;100.00;99855.59;5076557;28;20185;-79
2023/05/26 07:01:35;;;;;;;8.13;7.33;;;;;;;19.52;100.00;99862.69;5056410;28;20229;-77
2023/05/26 07:04:02;;;;;;;7.73;7.00;;;;;;;19.65;100.00;99871.09;5071273;28;20186;-78
2023/05/26 07:06:29;;;;;;;8.17;7.37;;;;;;;19.79;100.00;99877.59;5071899;28;20236;-78
2023/05/26 07:09:13;;;;;;;8.87;7.27;;;;;;;19.75;100.00;99876.53;5041337;28;20602;-78
2023/05/26 07:12:06;;;;;;;10.70;7.17;;;;;;;19.81;100.00;99890.94;5069719;28;20202;-78
2023/05/26 07:14:48;;;;;;;11.80;7.43;;;;;;;19.87;100.00;99889.03;5055827;28;20288;-78
2023/05/26 07:17:15;;;;;;;9.00;6.93;;;;;;;19.96;100.00;99890.91;5055782;28;20224;-79
2023/05/26 07:19:44;;;;;;;8.23;6.97;;;;;;;20.16;100.00;99888.13;5055554;28;20202;-78
2023/05/26 07:22:11;;;;;;;8.03;6.83;;;;;;;20.04;100.00;99884.91;5054770;28;20206;-78
2023/05/26 07:24:51;;;;;;;8.63;6.70;;;;;;;20.39;100.00;99891.38;5054982;28;20285;-77
2023/05/26 07:27:26;;;;;;;8.47;6.97;;;;;;;19.96;100.00;99890.09;5072718;28;20227;-78
2023/05/26 07:29:53;;;;;;;7.50;6.77;;;;;;;20.09;100.00;99887.63;5075777;28;20211;-79
2023/05/26 07:32:20;;;;;;;7.10;6.40;;;;;;;20.35;100.00;99887.56;5075712;28;20204;-79
2023/05/26 07:34:47;;;;;;;8.67;7.07;;;;;;;20.31;100.00;99883.78;5055231;28;20250;-78
2023/05/26 07:37:13;;;;;;;7.53;6.87;;;;;;;20.71;100.00;99891.78;5070955;28;20632;-78
2023/05/26 07:39:40;;;;;;;9.50;7.23;;;;;;;20.61;100.00;99894.56;5064464;28;20202;-78
2023/05/26 07:42:06;;;;;;;8.23;6.73;;;;;;;20.58;100.00;99884.22;5062583;28;20188;-78
2023/05/26 07:44:33;;;;;;;7.00;6.27;;;;;;;20.78;100.00;99881.41;5051916;28;20668;-78
2023/05/26 07:47:00;;;;;;;8.83;6.53;;;;;;;20.90;100.00;99879.13;5054437;28;20221;-78
2023/05/26 07:49:26;;;;;;;9.00;6.27;;;;;;;20.92;100.00;99882.41;5046165;28;20198;-77
2023/05/26 07:51:53;;;;;;;7.77;6.23;;;;;;;21.25;100.00;99883.59;5055881;28;20239;-78
2023/05/26 07:54:20;;;;;;;7.70;6.87;;;;;;;20.77;100.00;99890.66;5053138;28;20219;-78
2023/05/26 07:56:46;;;;;;;7.37;6.63;;;;;;;20.88;100.00;99894.97;5056253;28;20191;-78
2023/05/26 07:59:15;;;;;;;7.50;6.80;;;;;;;21.15;100.00;99891.81;5056106;28;20196;-78
2023/05/26 08:01:42;;;;;;;7.53;6.60;;;;;;;21.01;100.00;99890.78;5076345;28;20229;-78
2023/05/26 08:04:09;;;;;;;10.83;6.63;;;;;;;20.82;100.00;99885.19;5066389;28;20198;-78
2023/05/26 08:06:35;;;;;;;7.77;6.37;;;;;;;20.73;100.00;99897.75;5071886;28;20711;-79
2023/05/26 08:09:02;;;;;;;8.63;6.67;;;;;;;21.28;100.00;99880.28;5056791;28;20215;-78
2023/05/26 08:11:29;;;;;;;9.87;6.87;;;;;;;21.28;100.00;99882.19;5053929;28;20467;-78
2023/05/26 08:13:56;;;;;;;6.97;6.27;;;;;;;21.72;100.00;99888.41;5053296;28;20197;-78
2023/05/26 08:16:23;;;;;;;7.50;6.30;;;;;;;21.48;100.00;99882.88;5050321;28;20187;-78
2023/05/26 08:18:50;;;;;;;8.47;6.80;;;;;;;21.49;100.00;99892.69;5062415;28;20189;-78
2023/05/26 08:21:16;;;;;;;8.37;7.40;;;;;;;21.72;100.00;99890.31;5057281;28;20256;-78
2023/05/26 08:23:43;;;;;;;7.67;6.57;;;;;;;21.64;100.00;99891.75;5061697;28;20295;-79
2023/05/26 08:26:10;;;;;;;9.60;7.17;;;;;;;21.30;100.00;99891.72;5062310;28;20242;-78
2023/05/26 08:28:36;;;;;;;9.17;7.30;;;;;;;21.42;100.00;99886.72;5060019;28;20248;-78
2023/05/26 08:31:03;;;;;;;7.80;7.00;;;;;;;21.65;100.00;99895.28;5062945;28;20202;-79
2023/05/26 08:33:30;;;;;;;7.87;6.23;;;;;;;21.83;100.00;99897.31;5052766;28;20221;-80
2023/05/26 08:35:56;;;;;;;7.17;6.30;;;;;;;22.07;100.00;99898.16;5062717;28;20617;-80
2023/05/26 08:38:23;;;;;;;9.27;7.23;;;;;;;21.83;100.00;99895.41;5054654;28;20254;-79
2023/05/26 08:40:51;;;;;;;9.73;6.63;;;;;;;21.86;100.00;99894.00;5052690;28;20197;-79
2023/05/26 08:43:24;;;;;;;7.87;6.63;;;;;;;22.23;100.00;99888.72;5051342;28;20204;-78
2023/05/26 08:46:11;;;;;;;8.00;6.47;;;;;;;22.05;100.00;99896.84;5047457;28;20315;-78
2023/05/26 08:48:44;;;;;;;7.83;6.80;;;;;;;22.04;98.97;99882.38;5053961;28;20218;-78
2023/05/26 08:51:12;;;;;;;7.10;6.50;;;;;;;22.03;98.84;99888.94;5059090;28;20723;-80
2023/05/26 08:53:40;;;;;;;7.83;7.00;;;;;;;22.00;99.36;99885.97;5059439;28;20184;-78
2023/05/26 08:56:08;;;;;;;6.73;6.13;;;;;;;22.25;100.00;99894.72;5051588;28;20624;-79
2023/05/26 08:58:36;;;;;;;7.70;6.60;;;;;;;22.33;99.58;99876.88;5059702;28;20553;-81
2023/05/26 09:01:03;;;;;;;7.53;6.47;;;;;;;22.15;100.00;99886.63;5056646;28;20202;-79
2023/05/26 09:03:30;;;;;;;8.13;6.60;;;;;;;22.51;99.17;99884.31;5056943;28;20192;-79
2023/05/26 09:05:57;;;;;;;7.83;6.53;;;;;;;22.54;97.15;99889.16;5064531;28;20203;-79
2023/05/26 09:08:24;;;;;;;9.23;7.13;;;;;;;22.21;96.43;99873.75;5054450;28;20710;-78
2023/05/26 09:10:50;;;;;;;8.00;6.90;;;;;;;22.44;96.58;99874.84;5060132;28;20224;-79
2023/05/26 09:13:18;;;;;;;8.63;6.50;;;;;;;22.42;96.47;99874.31;5059347;28;20600;-79
2023/05/26 09:15:52;;;;;;;8.63;6.70;;;;;;;22.70;97.73;99881.63;5064921;28;20754;-78
2023/05/26 09:18:31;;;;;;;7.60;6.27;;;;;;;22.69;97.17;99879.97;5062546;28;20276;-79
2023/05/26 09:21:03;;;;;;;9.17;6.80;;;;;;;22.42;91.96;99875.13;5062984;28;20597;-79
2023/05/26 09:23:30;;;;;;;6.53;5.93;;;;;;;22.65;95.27;99868.84;5050423;28;20202;-82
2023/05/26 09:25:57;;;;;;;7.20;6.50;;;;;;;23.24;91.93;99883.88;5054357;28;20268;-80
2023/05/26 09:28:23;;;;;;;7.30;6.40;;;;;;;23.17;91.94;99878.78;5069259;28;20264;-79
2023/05/26 09:30:50;;;;;;;10.23;6.72;;;;;;;22.65;93.74;99889.88;5062724;28;20282;-79
2023/05/26 09:33:18;;;;;;;7.03;6.32;;;;;;;22.85;91.24;99881.44;5047259;28;20193;-79
2023/05/26 09:35:47;;;;;;;9.57;6.60;;;;;;;22.99;93.33;99879.59;5045885;28;20192;-79
2023/05/26 09:38:15;;;;;;;7.57;6.75;;;;;;;22.94;90.74;99874.22;5062370;28;20287;-79
2023/05/26 09:40:46;;;;;;;6.87;6.10;;;;;;;22.76;93.88;99880.47;5052397;28;20624;-79
2023/05/26 09:43:13;;;;;;;7.32;6.63;;;;;;;23.58;90.45;99873.50;5052958;28;20664;-79
2023/05/26 09:45:40;;;;;;;7.25;6.55;;;;;;;23.65;87.81;99884.06;5053805;28;20547;-79
2023/05/26 09:48:09;;;;;;;7.03;5.88;;;;;;;23.65;89.56;99881.34;5049687;28;20212;-79
2023/05/26 09:50:37;;;;;;;7.88;7.07;;;;;;;23.24;87.23;99875.66;5046584;28;20371;-79
2023/05/26 09:53:06;;;;;;;7.03;6.40;;;;;;;23.61;88.21;99872.09;5059513;28;20185;-79
2023/05/26 09:55:33;;;;;;;7.93;6.40;;;;;;;24.19;86.60;99883.38;5053617;28;20330;-79
2023/05/26 09:58:05;;;;;;;7.28;6.13;;;;;;;24.14;87.19;99880.72;5052925;28;20194;-79
2023/05/26 10:00:35;;;;;;;6.38;5.63;;;;;;;24.23;85.36;99873.44;5052927;28;20204;-79
2023/05/26 10:03:05;;;;;;;6.93;6.00;;;;;;;24.55;83.91;99881.56;5047611;28;20260;-81
2023/05/26 10:05:34;;;;;;;7.30;5.97;;;;;;;23.93;80.62;99865.78;5054759;28;20192;-78
2023/05/26 10:08:01;;;;;;;9.18;6.40;;;;;;;23.49;81.80;99869.84;5052555;28;20210;-78
2023/05/26 10:10:31;;;;;;;6.43;5.82;;;;;;;23.62;83.04;99871.78;5046273;28;20190;-78
2023/05/26 10:12:58;;;;;;;6.43;5.82;;;;;;;23.95;83.07;99872.56;5046912;28;20218;-80
2023/05/26 10:15:24;;;;;;;8.10;6.07;;;;;;;24.14;80.11;99870.56;5065774;28;20663;-79
2023/05/26 10:17:51;;;;;;;6.30;5.70;;;;;;;23.70;81.93;99868.34;5053075;28;20232;-79
2023/05/26 10:20:18;;;;;;;6.18;5.45;;;;;;;23.78;81.52;99866.88;5059832;28;20736;-78
2023/05/26 10:23:00;;;;;;;6.90;5.72;;;;;;;24.62;81.26;99863.91;5061801;28;20197;-78
2023/05/26 10:25:39;;;;;;;6.78;6.10;;;;;;;24.03;79.96;99860.91;5060901;28;20185;-78
2023/05/26 10:28:38;;;;;;;7.47;6.00;;;;;;;23.93;81.59;99868.53;5052766;28;20710;-78
2023/05/26 10:31:05;;;;;;;8.43;6.18;;;;;;;23.56;77.79;99861.25;5053906;28;20189;-78
2023/05/26 10:33:43;;;;;;;6.10;5.50;;;;;;;23.90;77.00;99855.44;5061393;28;20732;-79
2023/05/26 10:36:15;;;;;;;5.90;5.40;;;;;;;24.41;75.68;99866.25;5064351;28;20293;-80
2023/05/26 10:38:47;;;;;;;6.75;6.00;;;;;;;24.72;75.89;99855.47;5059060;28;20243;-78
2023/05/26 10:41:35;;;;;;;7.07;6.05;;;;;;;24.85;73.56;99855.44;5054878;28;20198;-78
2023/05/26 10:44:02;;;;;;;6.10;5.30;;;;;;;24.86;71.21;99862.56;5056432;28;20653;-78
2023/05/26 10:47:02;;;;;;;6.75;5.90;;;;;;;25.27;69.79;99854.22;5051363;28;20259;-78
2023/05/26 10:49:34;;;;;;;7.82;5.75;;;;;;;24.54;71.67;99849.78;5057278;28;20206;-78
2023/05/26 10:52:12;;;;;;;8.68;5.68;;;;;;;24.67;72.86;99850.91;5053817;28;20190;-81
2023/05/26 10:54:39;;;;;;;6.20;5.65;;;;;;;25.11;74.65;99865.84;5064383;28;20601;-79
2023/05/26 10:57:32;;;;;;;8.10;5.65;;;;;;;24.70;72.62;99850.28;5051160;28;20190;-80
2023/05/26 11:00:24;;;;;;;7.18;5.28;;;;;;;24.72;72.92;99855.47;5053034;28;20197;-80
2023/05/26 11:02:51;;;;;;;6.63;5.70;;;;;;;24.26;73.07;99847.41;5046581;28;20272;-81
2023/05/26 11:05:33;;;;;;;7.50;5.70;;;;;;;24.05;74.07;99850.50;5050112;28;20209;-79
2023/05/26 11:08:00;;;;;;;6.00;5.43;;;;;;;24.73;73.30;99838.69;5047778;28;20259;-78
2023/05/26 11:11:00;;;;;;;6.43;5.13;;;;;;;24.95;71.92;99844.28;5032242;28;20674;-78
2023/05/26 11:13:46;;;;;;;5.93;5.35;;;;;;;24.54;70.41;99846.28;5045698;28;20201;-80
2023/05/26 11:16:22;;;;;;;5.95;5.40;;;;;;;23.88;72.46;99842.06;5047829;28;20691;-80
2023/05/26 11:18:54;;;;;;;7.35;5.63;;;;;;;24.49;73.58;99844.44;5048622;28;20187;-79
2023/05/26 11:21:25;;;;;;;7.25;5.68;;;;;;;24.56;70.37;99835.81;5043900;28;20185;-78
2023/05/26 11:23:54;;;;;;;6.20;5.60;;;;;;;25.14;69.84;99832.34;5049443;28;20200;-78
2023/05/26 11:26:22;;;;;;;5.80;5.30;;;;;;;25.17;70.65;99837.19;5052342;28;20220;-78
2023/05/26 11:28:49;;;;;;;5.93;5.32;;;;;;;25.99;70.00;99831.28;5049363;28;20206;-80
2023/05/26 11:31:17;;;;;;;6.18;5.10;;;;;;;25.73;68.44;99836.63;5050921;28;20236;-80
2023/05/26 11:33:46;;;;;;;7.68;5.50;;;;;;;25.50;69.57;99829.50;5050411;28;20271;-80
2023/05/26 11:36:15;;;;;;;6.05;5.38;;;;;;;25.84;68.45;99838.78;5059807;28;20193;-80
2023/05/26 11:38:43;;;;;;;6.78;5.80;;;;;;;25.85;68.21;99831.34;5059605;28;20217;-80
2023/05/26 11:41:11;;;;;;;6.25;5.65;;;;;;;25.34;68.30;99831.81;5059505;28;20213;-78
2023/05/26 11:43:39;;;;;;;7.40;5.53;;;;;;;25.26;68.35;99835.31;5032501;28;20573;-78
2023/05/26 11:46:09;;;;;;;7.10;6.15;;;;;;;25.13;68.59;99826.03;5050791;28;20223;-78
2023/05/26 11:48:41;;;;;;;6.55;5.78;;;;;;;25.65;69.40;99809.97;5045226;28;20204;-78
2023/05/26 11:51:09;;;;;;;6.18;5.68;;;;;;;26.04;67.92;99807.22;5052680;28;20246;-79
2023/05/26 11:53:37;;;;;;;6.40;5.80;;;;;;;26.06;66.25;99807.72;5052946;28;20278;-80
2023/05/26 11:56:08;;;;;;;6.38;5.35;;;;;;;25.98;67.03;99804.94;5046514;28;20192;-80
2023/05/26 11:58:37;;;;;;;6.28;5.68;;;;;;;26.33;66.01;99794.91;5039229;28;20187;-79
2023/05/26 12:01:05;;;;;;;7.55;5.70;;;;;;;25.64;65.15;99806.41;5042882;28;20659;-82
2023/05/26 12:03:38;;;;;;;8.35;5.95;;;;;;;26.21;63.49;99809.25;5037783;28;20192;-79
2023/05/26 12:06:10;;;;;;;6.45;5.85;;;;;;;25.44;65.34;99807.69;5045805;28;20255;-81
2023/05/26 12:08:49;;;;;;;6.70;5.88;;;;;;;25.37;64.82;99814.75;5046034;28;20711;-78
2023/05/26 12:11:18;;;;;;;6.35;5.75;;;;;;;25.54;65.05;99817.63;5052446;28;20193;-79
2023/05/26 12:13:45;;;;;;;7.50;6.00;;;;;;;24.88;65.15;99816.47;5043971;28;20230;-78
2023/05/26 12:16:43;;;;;;;7.95;6.18;;;;;;;24.64;65.13;99820.56;5036952;28;20559;-78
2023/05/26 12:19:27;;;;;;;8.43;6.13;;;;;;;24.84;65.99;99817.38;5043634;28;20190;-78
2023/05/26 12:21:59;;;;;;;6.95;5.82;;;;;;;24.51;65.94;99814.00;5045517;28;20229;-78
2023/05/26 12:24:33;;;;;;;7.20;6.25;;;;;;;24.02;65.45;99812.81;5039902;28;20194;-79